Time;durP1;ratioP1;P1;durP2;ratioP2;P2;SDS_P1;SDS_P2;PMS_P1;PMS_P2;Temp;Humidity;BMP_temperature;BMP_pressure;BME280_temperature;BME280_humidity;BME280_pressure;Samples;Min_cycle;Max_cycle;Signal;HPM_P1;HPM_P2
2023/08/09 00:00:35;;;;;;;4.30;2.40;;;13.40;99.90;;;;;;5054976;28;20698;-79
2023/08/09 00:03:02;;;;;;;5.40;2.20;;;13.50;99.90;;;;;;5055395;28;20291;-79
2023/08/09 00:05:29;;;;;;;2.43;2.20;;;13.40;99.90;;;;;;5055523;28;20241;-78
2023/08/09 00:07:56;;;;;;;3.27;2.10;;;13.40;99.90;;;;;;5054535;28;20223;-79
2023/08/09 00:10:23;;;;;;;2.27;2.07;;;13.50;99.90;;;;;;5055962;28;20684;-79
2023/08/09 00:12:51;;;;;;;1.80;1.70;;;13.50;99.90;;;;;;5055147;28;20203;-78
2023/08/09 00:15:19;;;;;;;4.80;2.03;;;13.50;99.90;;;;;;5058326;28;20206;-79
2023/08/09 00:17:46;;;;;;;5.53;2.10;;;13.40;99.90;;;;;;5058124;28;20231;-79
2023/08/09 00:20:13;;;;;;;4.03;1.90;;;13.40;99.90;;;;;;5058658;28;20206;-77
2023/08/09 00:22:40;;;;;;;2.10;1.90;;;13.40;99.90;;;;;;5057906;28;20217;-77
2023/08/09 00:25:10;;;;;;;1.90;1.70;;;13.40;99.90;;;;;;5058562;28;20199;-78
2023/08/09 00:27:37;;;;;;;3.17;2.00;;;13.40;99.90;;;;;;5057851;28;20223;-79
2023/08/09 00:30:05;;;;;;;5.13;2.40;;;13.40;99.90;;;;;;5058532;28;20714;-78
2023/08/09 00:32:33;;;;;;;3.50;2.10;;;13.40;99.90;;;;;;5058687;28;20225;-79
2023/08/09 00:35:00;;;;;;;3.70;2.30;;;13.40;99.90;;;;;;5057930;28;20224;-78
2023/08/09 00:37:27;;;;;;;2.33;2.13;;;13.40;99.90;;;;;;5058317;28;20306;-79
2023/08/09 00:39:55;;;;;;;2.17;2.03;;;13.30;99.90;;;;;;5064287;28;20281;-79
2023/08/09 00:42:23;;;;;;;2.50;1.83;;;13.30;99.90;;;;;;5060239;28;20199;-78
2023/08/09 00:44:49;;;;;;;3.67;2.50;;;13.40;99.90;;;;;;5058937;28;20213;-79
2023/08/09 00:47:17;;;;;;;3.87;2.23;;;13.30;99.90;;;;;;5058125;28;20199;-79
2023/08/09 00:49:46;;;;;;;2.43;2.20;;;13.30;99.90;;;;;;5058935;28;20642;-79
2023/08/09 00:52:13;;;;;;;2.93;2.63;;;13.40;99.90;;;;;;5059066;28;20653;-79
2023/08/09 00:54:40;;;;;;;2.90;2.10;;;13.30;99.90;;;;;;5058896;28;20267;-78
2023/08/09 00:57:08;;;;;;;2.40;2.20;;;13.30;99.90;;;;;;5058265;28;20235;-79
2023/08/09 00:59:35;;;;;;;3.43;2.03;;;13.30;99.90;;;;;;5058454;28;20266;-78
2023/08/09 01:02:02;;;;;;;2.40;2.00;;;13.30;99.90;;;;;;5058370;28;20199;-79
2023/08/09 01:04:29;;;;;;;4.00;2.20;;;13.30;99.90;;;;;;5058931;28;20210;-79
2023/08/09 01:07:07;;;;;;;5.07;1.93;;;13.30;99.90;;;;;;5058833;28;20210;-78
2023/08/09 01:09:37;;;;;;;2.30;2.10;;;13.30;99.90;;;;;;5058373;28;20246;-78
2023/08/09 01:12:08;;;;;;;4.83;2.30;;;13.30;99.90;;;;;;5059040;28;20202;-78
2023/08/09 01:14:37;;;;;;;2.63;2.23;;;13.20;99.90;;;;;;5057463;28;20298;-79
2023/08/09 01:17:07;;;;;;;3.47;2.37;;;13.30;99.90;;;;;;5057496;28;20199;-79
2023/08/09 01:19:42;;;;;;;2.70;1.92;;;13.20;99.90;;;;;;5058017;28;20282;-79
2023/08/09 01:22:15;;;;;;;2.58;2.20;;;13.30;99.90;;;;;;5059022;28;20206;-79
2023/08/09 01:24:43;;;;;;;3.13;2.10;;;13.20;99.90;;;;;;5057930;28;20211;-80
2023/08/09 01:27:10;;;;;;;2.37;1.97;;;13.30;99.90;;;;;;5057160;28;20625;-79
2023/08/09 01:29:37;;;;;;;4.60;2.17;;;13.20;99.90;;;;;;5058352;28;20218;-79
2023/08/09 01:32:05;;;;;;;2.53;2.30;;;13.20;99.90;;;;;;5057923;28;20273;-78
2023/08/09 01:34:32;;;;;;;2.93;2.00;;;13.10;99.90;;;;;;5057659;28;20203;-79
2023/08/09 01:37:05;;;;;;;4.40;2.57;;;13.10;99.90;;;;;;5057855;28;20199;-79
2023/08/09 01:39:35;;;;;;;3.00;2.20;;;13.10;99.90;;;;;;5058880;28;20211;-79
2023/08/09 01:42:03;;;;;;;3.88;2.08;;;13.10;99.90;;;;;;5058215;28;20286;-79
2023/08/09 01:44:31;;;;;;;4.50;2.00;;;13.10;99.90;;;;;;5057841;28;20211;-80
2023/08/09 01:46:58;;;;;;;4.47;2.30;;;12.90;99.90;;;;;;5058555;28;20231;-80
2023/08/09 01:49:25;;;;;;;6.28;2.65;;;12.90;99.90;;;;;;5054581;28;20233;-79
2023/08/09 01:51:52;;;;;;;4.67;2.20;;;12.90;99.90;;;;;;5037806;28;20238;-79
2023/08/09 01:54:19;;;;;;;3.53;2.27;;;12.80;99.90;;;;;;5046988;28;20200;-79
2023/08/09 01:56:46;;;;;;;3.47;2.47;;;12.80;99.90;;;;;;5077259;28;20199;-79
2023/08/09 01:59:14;;;;;;;3.13;2.27;;;12.70;99.90;;;;;;5077016;28;20233;-79
2023/08/09 02:01:41;;;;;;;2.80;2.43;;;12.80;99.90;;;;;;5073968;28;20203;-79
2023/08/09 02:04:10;;;;;;;3.17;2.10;;;12.70;99.90;;;;;;5058377;28;20195;-79
2023/08/09 02:06:38;;;;;;;3.67;1.97;;;12.70;99.90;;;;;;5057894;28;20264;-78
2023/08/09 02:09:06;;;;;;;2.30;2.10;;;12.70;99.90;;;;;;5056391;28;20215;-79
2023/08/09 02:11:33;;;;;;;4.07;2.57;;;12.70;99.90;;;;;;5056940;28;20230;-79
2023/08/09 02:14:00;;;;;;;3.97;2.53;;;12.60;99.90;;;;;;5057424;28;20203;-79
2023/08/09 02:16:28;;;;;;;3.63;2.87;;;12.50;99.90;;;;;;5057717;28;20199;-79
2023/08/09 02:18:55;;;;;;;3.30;1.93;;;12.50;99.90;;;;;;5056732;28;20226;-80
2023/08/09 02:21:22;;;;;;;5.83;2.97;;;12.40;99.90;;;;;;5057424;28;20199;-78
2023/08/09 02:23:49;;;;;;;2.43;2.00;;;12.40;99.90;;;;;;5057566;28;20657;-80
2023/08/09 02:26:18;;;;;;;2.40;2.13;;;12.30;99.90;;;;;;5057347;28;20202;-80
2023/08/09 02:28:45;;;;;;;3.20;2.33;;;12.40;99.90;;;;;;5057205;28;20318;-80
2023/08/09 02:31:12;;;;;;;3.63;2.30;;;12.40;99.90;;;;;;5057357;28;20234;-80
2023/08/09 02:33:41;;;;;;;3.67;2.50;;;12.40;99.90;;;;;;5057529;28;20214;-79
2023/08/09 02:36:08;;;;;;;4.87;2.87;;;12.20;99.90;;;;;;5057012;28;20207;-80
2023/08/09 02:38:35;;;;;;;6.40;3.30;;;12.20;99.90;;;;;;5070008;28;20226;-79
2023/08/09 02:41:03;;;;;;;13.87;7.37;;;12.20;99.90;;;;;;5067672;28;20210;-80
2023/08/09 02:43:30;;;;;;;5.63;4.60;;;12.10;99.90;;;;;;5058786;28;20241;-79
2023/08/09 02:45:57;;;;;;;3.70;2.33;;;12.00;99.90;;;;;;5060116;28;20211;-79
2023/08/09 02:48:24;;;;;;;3.27;2.40;;;12.00;99.90;;;;;;5056044;28;20268;-80
2023/08/09 02:50:53;;;;;;;4.47;2.13;;;11.90;99.90;;;;;;5056164;28;20222;-79
2023/08/09 02:53:20;;;;;;;2.50;2.20;;;11.80;99.90;;;;;;5055808;28;20294;-78
2023/08/09 02:55:47;;;;;;;4.50;2.50;;;11.80;99.90;;;;;;5056640;28;20230;-79
2023/08/09 02:58:14;;;;;;;4.90;2.13;;;11.80;99.90;;;;;;5056288;28;20233;-79
2023/08/09 03:00:41;;;;;;;2.93;2.47;;;11.80;99.90;;;;;;5055710;28;20206;-79
2023/08/09 03:03:08;;;;;;;5.53;2.60;;;11.90;99.90;;;;;;5056794;28;20238;-80
2023/08/09 03:05:35;;;;;;;2.50;2.30;;;11.70;99.90;;;;;;5057429;28;20203;-80
2023/08/09 03:08:03;;;;;;;5.93;2.27;;;11.70;99.90;;;;;;5056364;28;20218;-79
2023/08/09 03:10:31;;;;;;;4.10;2.40;;;11.70;99.90;;;;;;5057177;28;20583;-79
2023/08/09 03:12:58;;;;;;;4.57;2.33;;;11.60;99.90;;;;;;5057334;28;20207;-79
2023/08/09 03:15:25;;;;;;;3.67;2.40;;;11.60;99.90;;;;;;5065687;28;20653;-78
2023/08/09 03:17:52;;;;;;;5.57;3.03;;;11.60;99.90;;;;;;5077700;28;20695;-81
2023/08/09 03:20:18;;;;;;;4.23;3.40;;;11.60;99.90;;;;;;5063675;28;20223;-78
2023/08/09 03:22:47;;;;;;;2.60;2.40;;;11.50;99.90;;;;;;5056203;28;20249;-79
2023/08/09 03:25:16;;;;;;;5.23;3.00;;;11.40;99.90;;;;;;5056877;28;20289;-79
2023/08/09 03:27:43;;;;;;;3.63;2.83;;;11.30;99.90;;;;;;5056277;28;20227;-79
2023/08/09 03:30:11;;;;;;;3.07;2.60;;;11.30;99.90;;;;;;5056743;28;20223;-78
2023/08/09 03:32:38;;;;;;;5.43;2.60;;;11.20;99.90;;;;;;5056176;28;20198;-79
2023/08/09 03:35:07;;;;;;;6.30;2.80;;;11.30;99.90;;;;;;5055771;28;20262;-79
2023/08/09 03:37:34;;;;;;;6.07;3.30;;;11.20;99.90;;;;;;5056320;28;20258;-79
2023/08/09 03:40:02;;;;;;;3.63;2.60;;;11.20;99.90;;;;;;5056808;28;20643;-79
2023/08/09 03:42:30;;;;;;;3.50;2.53;;;11.30;99.90;;;;;;5056972;28;20728;-79
2023/08/09 03:44:57;;;;;;;3.57;2.40;;;11.20;99.90;;;;;;5056696;28;20209;-79
2023/08/09 03:47:23;;;;;;;3.37;2.70;;;11.10;99.90;;;;;;5056442;28;20198;-79
2023/08/09 03:49:50;;;;;;;7.40;2.87;;;11.30;99.90;;;;;;5055644;28;20214;-78
2023/08/09 03:52:17;;;;;;;5.07;2.90;;;11.20;99.90;;;;;;5056045;28;20202;-79
2023/08/09 03:54:44;;;;;;;4.90;2.33;;;11.20;99.90;;;;;;5055675;28;20207;-79
2023/08/09 03:57:11;;;;;;;4.87;3.07;;;11.20;99.90;;;;;;5054874;28;20213;-80
2023/08/09 03:59:39;;;;;;;5.50;2.83;;;11.10;99.90;;;;;;5056105;28;20230;-79
2023/08/09 04:02:06;;;;;;;5.20;2.97;;;11.00;99.90;;;;;;5057344;28;20661;-79
2023/08/09 04:04:34;;;;;;;7.30;3.40;;;11.10;99.90;;;;;;5057076;28;20209;-79
2023/08/09 04:07:01;;;;;;;3.60;2.60;;;11.20;99.90;;;;;;5056696;28;20230;-79
2023/08/09 04:09:28;;;;;;;4.87;2.77;;;11.40;99.90;;;;;;5056895;28;20233;-80
2023/08/09 04:11:55;;;;;;;4.53;3.07;;;11.70;99.90;;;;;;5056864;28;20226;-80
2023/08/09 04:14:22;;;;;;;6.47;2.80;;;12.20;99.90;;;;;;5056792;28;20211;-79
2023/08/09 04:16:51;;;;;;;6.13;3.10;;;12.30;99.90;;;;;;5056906;28;20206;-80
2023/08/09 04:19:18;;;;;;;5.17;2.93;;;12.70;99.90;;;;;;5056358;28;20237;-79
2023/08/09 04:21:45;;;;;;;4.70;2.83;;;12.50;99.90;;;;;;5056953;28;20301;-79
2023/08/09 04:24:12;;;;;;;5.47;2.63;;;12.30;99.90;;;;;;5057257;28;20199;-78
2023/08/09 04:26:39;;;;;;;5.67;2.90;;;12.20;99.90;;;;;;5056712;28;20230;-79
2023/08/09 04:29:07;;;;;;;4.03;3.03;;;11.90;99.90;;;;;;5056356;28;20222;-79
2023/08/09 04:31:33;;;;;;;3.03;2.60;;;11.80;99.90;;;;;;5056374;28;20231;-79
2023/08/09 04:34:02;;;;;;;4.77;2.73;;;11.70;99.90;;;;;;5056883;28;20210;-78
2023/08/09 04:36:31;;;;;;;5.10;3.10;;;11.70;99.90;;;;;;5056913;28;20214;-78
2023/08/09 04:38:58;;;;;;;4.93;2.90;;;11.70;99.90;;;;;;5047394;28;20215;-79
2023/08/09 04:41:25;;;;;;;5.17;2.67;;;11.70;99.90;;;;;;5055728;28;20560;-79
2023/08/09 04:43:51;;;;;;;4.13;2.43;;;11.70;99.90;;;;;;5055141;28;20214;-80
2023/08/09 04:46:19;;;;;;;4.17;3.00;;;11.60;99.90;;;;;;5056121;28;20196;-80
2023/08/09 04:48:45;;;;;;;3.70;2.80;;;11.80;99.90;;;;;;5065980;28;20219;-80
2023/08/09 04:51:13;;;;;;;5.53;2.73;;;11.80;99.90;;;;;;5062536;28;20219;-79
2023/08/09 04:53:40;;;;;;;5.87;3.30;;;11.70;99.90;;;;;;5064985;28;20209;-79
2023/08/09 04:56:07;;;;;;;5.23;2.97;;;11.80;99.90;;;;;;5055544;28;20199;-79
2023/08/09 04:58:34;;;;;;;7.63;3.00;;;11.70;99.90;;;;;;5054305;28;20689;-78
2023/08/09 05:01:01;;;;;;;4.63;3.30;;;11.80;99.90;;;;;;5057589;28;20202;-79
2023/08/09 05:03:28;;;;;;;5.87;3.47;;;11.80;99.90;;;;;;5059098;28;20683;-78
2023/08/09 05:05:54;;;;;;;5.00;3.23;;;11.80;99.90;;;;;;5059198;28;20214;-77
2023/08/09 05:08:23;;;;;;;6.87;3.30;;;11.80;99.90;;;;;;5059327;28;20230;-78
2023/08/09 05:10:50;;;;;;;5.33;3.67;;;11.90;99.90;;;;;;5065071;28;20210;-78
2023/08/09 05:13:17;;;;;;;6.20;3.70;;;12.00;99.90;;;;;;5059270;28;20199;-79
2023/08/09 05:15:44;;;;;;;6.10;3.47;;;12.00;99.90;;;;;;5057675;28;20199;-79
2023/08/09 05:18:10;;;;;;;6.30;3.90;;;12.10;99.90;;;;;;5058296;28;20231;-79
2023/08/09 05:20:38;;;;;;;5.83;4.20;;;12.10;99.90;;;;;;5059458;28;20203;-79
2023/08/09 05:23:05;;;;;;;6.57;4.13;;;12.60;99.90;;;;;;5059341;28;20203;-79
2023/08/09 05:25:33;;;;;;;5.70;4.10;;;13.20;99.90;;;;;;5058801;28;20207;-79
2023/08/09 05:27:59;;;;;;;5.37;3.53;;;12.90;99.90;;;;;;5058643;28;20616;-79
2023/08/09 05:30:26;;;;;;;6.57;3.67;;;12.40;99.90;;;;;;5059157;28;20270;-78
2023/08/09 05:32:53;;;;;;;5.47;3.90;;;12.50;99.90;;;;;;5061852;28;20195;-79
2023/08/09 05:35:20;;;;;;;7.03;3.70;;;12.40;99.90;;;;;;5070226;28;20198;-79
2023/08/09 05:37:47;;;;;;;6.53;4.00;;;12.50;99.90;;;;;;5078799;28;20218;-79
2023/08/09 05:40:14;;;;;;;7.03;4.23;;;12.50;99.90;;;;;;5078771;28;20297;-78
2023/08/09 05:42:42;;;;;;;6.03;4.43;;;12.70;99.90;;;;;;5077503;28;20198;-78
2023/08/09 05:45:09;;;;;;;6.67;4.97;;;12.60;99.90;;;;;;5059069;28;20199;-78
2023/08/09 05:47:36;;;;;;;6.43;4.83;;;12.60;99.90;;;;;;5058405;28;20700;-78
2023/08/09 05:50:04;;;;;;;9.53;5.03;;;12.80;99.90;;;;;;5059016;28;20221;-79
2023/08/09 05:52:31;;;;;;;6.93;4.73;;;12.80;99.90;;;;;;5058601;28;20223;-79
2023/08/09 05:54:58;;;;;;;6.80;4.73;;;12.80;99.90;;;;;;5038275;28;20214;-79
2023/08/09 05:57:25;;;;;;;7.73;5.03;;;12.90;99.90;;;;;;5054484;28;20702;-79
2023/08/09 05:59:55;;;;;;;7.43;4.90;;;13.00;99.90;;;;;;5058617;28;20414;-78
2023/08/09 06:02:22;;;;;;;7.27;5.00;;;13.00;99.90;;;;;;5059002;28;20199;-79
2023/08/09 06:04:49;;;;;;;7.77;5.50;;;13.00;99.90;;;;;;5059099;28;20237;-78
2023/08/09 06:07:16;;;;;;;7.93;5.23;;;13.10;99.90;;;;;;5057992;28;20288;-79
2023/08/09 06:09:43;;;;;;;7.10;5.30;;;13.20;99.90;;;;;;5058550;28;20211;-79
2023/08/09 06:12:10;;;;;;;7.40;4.87;;;13.30;99.90;;;;;;5058562;28;20222;-78
2023/08/09 06:14:37;;;;;;;5.37;4.60;;;13.30;99.90;;;;;;5059253;28;20203;-79
2023/08/09 06:17:05;;;;;;;7.83;4.47;;;13.30;99.90;;;;;;5058876;28;20221;-78
2023/08/09 06:19:33;;;;;;;7.60;4.83;;;13.50;99.90;;;;;;5058084;28;20602;-79
2023/08/09 06:22:00;;;;;;;5.70;4.27;;;13.50;99.90;;;;;;5059086;28;20198;-79
2023/08/09 06:24:29;;;;;;;6.90;4.57;;;13.70;99.90;;;;;;5058887;28;20203;-78
2023/08/09 06:26:55;;;;;;;8.38;4.78;;;13.70;99.90;;;;;;5058510;28;20202;-79
2023/08/09 06:29:22;;;;;;;7.07;5.07;;;13.80;99.90;;;;;;5058225;28;20316;-79
2023/08/09 06:31:50;;;;;;;6.33;4.73;;;13.80;99.90;;;;;;5076126;28;20222;-78
2023/08/09 06:34:18;;;;;;;5.60;4.27;;;13.80;99.90;;;;;;5064005;28;20199;-78
2023/08/09 06:36:45;;;;;;;6.63;4.50;;;13.90;99.90;;;;;;5058814;28;20282;-79
2023/08/09 06:39:11;;;;;;;7.00;4.50;;;13.80;99.90;;;;;;5066387;28;20234;-78
2023/08/09 06:41:38;;;;;;;11.40;5.33;;;13.90;99.90;;;;;;5061187;28;20210;-78
2023/08/09 06:44:06;;;;;;;4.53;3.80;;;14.00;99.90;;;;;;5077096;28;20221;-78
2023/08/09 06:46:33;;;;;;;7.87;3.70;;;14.10;99.90;;;;;;5059236;28;20353;-78
2023/08/09 06:49:00;;;;;;;7.95;4.32;;;14.10;99.90;;;;;;5059669;28;20222;-79
2023/08/09 06:51:28;;;;;;;5.73;3.73;;;14.20;99.90;;;;;;5063104;28;20249;-79
2023/08/09 06:53:55;;;;;;;6.27;3.30;;;14.30;99.90;;;;;;5057809;28;20209;-80
2023/08/09 06:56:21;;;;;;;4.40;3.20;;;14.40;99.90;;;;;;5058145;28;20293;-79
2023/08/09 06:58:48;;;;;;;7.32;3.10;;;14.50;99.90;;;;;;5057515;28;20227;-78
2023/08/09 07:01:15;;;;;;;3.65;3.33;;;14.60;99.90;;;;;;5057857;28;20209;-79
2023/08/09 07:03:43;;;;;;;5.07;2.83;;;14.90;99.90;;;;;;5057270;28;20238;-79
2023/08/09 07:06:10;;;;;;;5.45;3.35;;;14.70;99.90;;;;;;5058530;28;20250;-78
2023/08/09 07:08:39;;;;;;;4.55;3.50;;;14.80;99.90;;;;;;5057958;28;20258;-78
2023/08/09 07:11:06;;;;;;;5.18;2.70;;;15.20;99.90;;;;;;5056333;28;20207;-79
2023/08/09 07:13:33;;;;;;;3.63;2.75;;;15.20;99.90;;;;;;5056918;28;20862;-78
2023/08/09 07:16:06;;;;;;;3.60;2.58;;;15.20;99.90;;;;;;5056635;28;20669;-77
2023/08/09 07:18:33;;;;;;;3.97;2.50;;;15.00;99.90;;;;;;5063940;28;20653;-77
2023/08/09 07:21:00;;;;;;;3.38;2.60;;;15.20;99.90;;;;;;5067007;28;20665;-78
2023/08/09 07:23:26;;;;;;;4.03;2.42;;;15.10;99.90;;;;;;5056436;28;20285;-78
2023/08/09 07:25:54;;;;;;;3.17;2.30;;;15.00;99.90;;;;;;5055862;28;20214;-77
2023/08/09 07:28:21;;;;;;;6.18;2.70;;;15.00;99.90;;;;;;5055335;28;20227;-78
2023/08/09 07:30:51;;;;;;;2.83;2.30;;;15.10;99.90;;;;;;5056254;28;20651;-79
2023/08/09 07:33:20;;;;;;;4.85;2.30;;;15.20;99.90;;;;;;5056251;28;20226;-78
2023/08/09 07:35:52;;;;;;;4.97;2.00;;;15.20;99.90;;;;;;5056158;28;20695;-78
2023/08/09 07:38:19;;;;;;;2.03;1.70;;;15.20;99.90;;;;;;5056012;28;20230;-77
2023/08/09 07:40:46;;;;;;;4.82;1.98;;;15.20;99.90;;;;;;5055971;28;20207;-78
2023/08/09 07:43:14;;;;;;;3.90;1.85;;;15.30;99.90;;;;;;5055653;28;20195;-78
2023/08/09 07:45:45;;;;;;;2.28;1.90;;;15.30;99.90;;;;;;5057372;28;20585;-78
2023/08/09 07:48:12;;;;;;;4.60;2.10;;;15.40;99.90;;;;;;5055902;28;20231;-78
2023/08/09 07:50:39;;;;;;;2.72;2.40;;;15.60;99.90;;;;;;5056902;28;20662;-77
2023/08/09 07:53:06;;;;;;;3.30;1.90;;;15.80;99.90;;;;;;5056723;28;20226;-78
2023/08/09 07:55:34;;;;;;;2.83;1.80;;;15.60;99.90;;;;;;5056917;28;20203;-79
2023/08/09 07:58:00;;;;;;;3.20;2.17;;;15.70;99.90;;;;;;5055108;28;20723;-78
2023/08/09 08:00:30;;;;;;;3.05;2.13;;;15.60;99.90;;;;;;5055852;28;20229;-78
2023/08/09 08:02:57;;;;;;;3.78;2.05;;;15.70;99.90;;;;;;5063438;28;20653;-78
2023/08/09 08:05:25;;;;;;;3.42;1.50;;;15.80;99.90;;;;;;5055243;28;20242;-78
2023/08/09 08:07:52;;;;;;;2.72;1.60;;;15.90;99.90;;;;;;5054594;28;20258;-78
2023/08/09 08:10:20;;;;;;;2.92;1.77;;;16.00;99.90;;;;;;5055644;28;20206;-78
2023/08/09 08:12:49;;;;;;;2.58;1.38;;;16.10;99.90;;;;;;5056088;28;20226;-78
2023/08/09 08:15:16;;;;;;;3.25;1.63;;;16.20;99.90;;;;;;5055466;28;20202;-78
2023/08/09 08:17:46;;;;;;;2.58;1.40;;;16.30;99.90;;;;;;5054762;28;20229;-77
2023/08/09 08:20:16;;;;;;;5.47;1.25;;;16.50;99.90;;;;;;5053457;28;20458;-78
2023/08/09 08:22:43;;;;;;;3.47;1.60;;;16.60;99.90;;;;;;5055122;28;20195;-78
2023/08/09 08:25:11;;;;;;;3.03;1.40;;;16.50;99.90;;;;;;5053333;28;20206;-78
2023/08/09 08:27:38;;;;;;;1.60;1.48;;;16.70;99.90;;;;;;5054677;28;20229;-78
2023/08/09 08:30:08;;;;;;;3.40;1.50;;;16.70;99.90;;;;;;5055660;28;20213;-78
2023/08/09 08:32:35;;;;;;;1.85;1.33;;;16.50;99.90;;;;;;5054574;28;20638;-77
2023/08/09 08:35:04;;;;;;;2.05;1.35;;;16.20;99.90;;;;;;5056422;28;20210;-78
2023/08/09 08:37:31;;;;;;;5.93;2.00;;;16.20;99.90;;;;;;5058453;28;20389;-78
2023/08/09 08:39:58;;;;;;;3.33;1.50;;;16.40;99.90;;;;;;5060022;28;20203;-78
2023/08/09 08:42:27;;;;;;;1.55;1.10;;;16.70;99.90;;;;;;5059397;28;20211;-78
2023/08/09 08:44:53;;;;;;;3.90;1.42;;;16.60;99.90;;;;;;5058913;28;20290;-78
2023/08/09 08:47:20;;;;;;;2.38;1.45;;;16.80;99.90;;;;;;5058658;28;20594;-78
2023/08/09 08:49:51;;;;;;;6.13;1.15;;;17.10;99.90;;;;;;5057454;28;20217;-77
2023/08/09 08:52:20;;;;;;;1.63;0.88;;;17.30;99.90;;;;;;5059318;28;20223;-78
2023/08/09 08:54:47;;;;;;;3.88;1.77;;;17.30;99.90;;;;;;5059046;28;20659;-77
2023/08/09 08:57:14;;;;;;;3.85;1.30;;;17.40;99.90;;;;;;5058373;28;20195;-78
2023/08/09 08:59:42;;;;;;;1.80;1.00;;;17.40;99.90;;;;;;5058967;28;20235;-77
2023/08/09 09:02:08;;;;;;;2.35;1.20;;;17.40;99.90;;;;;;5059001;28;20207;-78
2023/08/09 09:04:38;;;;;;;3.20;1.20;;;17.10;99.90;;;;;;5058269;28;20213;-77
2023/08/09 09:07:07;;;;;;;4.38;1.35;;;17.60;99.90;;;;;;5058849;28;20205;-78
2023/08/09 09:09:43;;;;;;;2.35;1.15;;;17.70;99.90;;;;;;5058981;28;20227;-79
2023/08/09 09:12:10;;;;;;;2.42;1.00;;;17.60;99.90;;;;;;5059391;28;20223;-79
2023/08/09 09:14:37;;;;;;;2.30;1.20;;;17.40;99.90;;;;;;5060234;28;20657;-79
2023/08/09 09:17:05;;;;;;;1.88;1.27;;;17.70;99.90;;;;;;5059361;28;20207;-79
2023/08/09 09:19:36;;;;;;;3.33;0.95;;;18.00;99.90;;;;;;5059134;28;20724;-79
2023/08/09 09:22:03;;;;;;;2.53;1.20;;;18.00;99.90;;;;;;5059260;28;20199;-79
2023/08/09 09:24:35;;;;;;;0.85;0.80;;;18.70;99.90;;;;;;5058679;28;20195;-78
2023/08/09 09:27:04;;;;;;;4.35;1.00;;;19.00;99.90;;;;;;5058361;28;20576;-79
2023/08/09 09:29:33;;;;;;;1.27;0.88;;;19.20;99.90;;;;;;5058188;28;20247;-78
2023/08/09 09:32:00;;;;;;;1.67;1.13;;;19.30;99.90;;;;;;5058954;28;20242;-78
2023/08/09 09:34:29;;;;;;;5.30;1.45;;;19.10;99.90;;;;;;5059615;28;20237;-78
2023/08/09 09:36:56;;;;;;;2.58;1.05;;;18.90;99.90;;;;;;5058616;28;20257;-78
2023/08/09 09:39:23;;;;;;;2.63;0.80;;;19.50;99.90;;;;;;5056871;28;20226;-78
2023/08/09 09:41:51;;;;;;;2.17;1.10;;;20.00;99.90;;;;;;5057899;28;20199;-77
2023/08/09 09:44:21;;;;;;;4.07;1.08;;;20.20;99.90;;;;;;5057637;28;20199;-78
2023/08/09 09:46:53;;;;;;;1.23;0.82;;;19.90;99.90;;;;;;5056031;28;20217;-79
2023/08/09 09:49:20;;;;;;;1.83;1.05;;;19.40;99.90;;;;;;5055997;28;20261;-79
2023/08/09 09:51:49;;;;;;;2.83;1.13;;;20.00;99.90;;;;;;5056830;28;20199;-78
2023/08/09 09:54:16;;;;;;;1.50;0.90;;;19.70;99.90;;;;;;5057464;28;20282;-78
2023/08/09 09:56:43;;;;;;;2.55;0.93;;;20.10;99.90;;;;;;5057014;28;20199;-78
2023/08/09 09:59:10;;;;;;;2.42;1.10;;;20.90;99.90;;;;;;5056722;28;20219;-78
2023/08/09 10:01:42;;;;;;;3.22;1.05;;;21.30;99.90;;;;;;5056145;28;20210;-78
2023/08/09 10:04:12;;;;;;;3.88;0.90;;;20.70;99.90;;;;;;5056157;28;20183;-78
2023/08/09 10:06:42;;;;;;;1.98;0.80;;;20.40;99.90;;;;;;5056441;28;20569;-78
2023/08/09 10:09:10;;;;;;;0.60;0.60;;;20.60;99.90;;;;;;5056587;28;20249;-78
2023/08/09 10:11:37;;;;;;;2.72;0.80;;;21.50;99.90;;;;;;5056596;28;20285;-79
2023/08/09 10:14:07;;;;;;;0.85;0.80;;;21.40;99.90;;;;;;5057061;28;20222;-78
2023/08/09 10:16:36;;;;;;;2.67;1.15;;;21.00;99.90;;;;;;5057229;28;20206;-79
2023/08/09 10:19:09;;;;;;;1.85;1.08;;;20.40;99.90;;;;;;5056494;28;20314;-78
2023/08/09 10:21:36;;;;;;;3.13;1.13;;;20.10;99.90;;;;;;5057036;28;20238;-78
2023/08/09 10:24:07;;;;;;;1.10;0.90;;;21.00;99.90;;;;;;5056410;28;20201;-78
2023/08/09 10:26:34;;;;;;;4.10;1.05;;;21.70;99.90;;;;;;5056767;28;20207;-78
2023/08/09 10:29:06;;;;;;;3.05;1.00;;;22.10;99.90;;;;;;5056209;28;20246;-77
2023/08/09 10:31:51;;;;;;;2.83;0.90;;;22.40;99.90;;;;;;5057003;28;20661;-78
2023/08/09 10:34:21;;;;;;;3.50;0.90;;;22.80;99.90;;;;;;5056377;28;20233;-78
2023/08/09 10:36:53;;;;;;;2.65;0.65;;;22.60;82.90;;;;;;5054855;28;20626;-78
2023/08/09 10:39:20;;;;;;;1.70;1.00;;;21.80;76.90;;;;;;5058181;28;20223;-79
2023/08/09 10:41:59;;;;;;;0.98;0.82;;;20.60;1.00;;;;;;5059470;28;20268;-78
2023/08/09 10:44:37;;;;;;;2.15;0.70;;;21.10;11.10;;;;;;5055719;28;20230;-77
2023/08/09 10:47:06;;;;;;;3.92;1.17;;;21.40;1.00;;;;;;5061621;28;20210;-78
2023/08/09 10:50:02;;;;;;;3.63;1.25;;;22.00;1.00;;;;;;5061814;28;20250;-79
2023/08/09 10:52:35;;;;;;;2.58;1.05;;;22.40;9.90;;;;;;5055961;28;20304;-78
2023/08/09 10:55:31;;;;;;;1.50;0.90;;;22.20;1.00;;;;;;5055542;28;20661;-78
2023/08/09 10:58:00;;;;;;;1.08;0.98;;;21.40;1.00;;;;;;5050697;28;20229;-77
2023/08/09 11:00:29;;;;;;;2.90;0.88;;;21.20;1.00;;;;;;5055342;28;20234;-77
2023/08/09 11:02:57;;;;;;;1.00;0.90;;;21.10;1.00;;;;;;5055124;28;20724;-78
2023/08/09 11:05:28;;;;;;;1.58;1.00;;;21.00;1.00;;;;;;5055361;28;20207;-77
2023/08/09 11:07:56;;;;;;;3.33;1.10;;;20.60;1.00;;;;;;5055118;28;20691;-78
2023/08/09 11:10:34;;;;;;;2.15;1.10;;;20.40;1.00;;;;;;5053642;28;20205;-78
2023/08/09 11:13:08;;;;;;;2.08;0.80;;;21.40;1.00;;;;;;5054708;28;20230;-77
2023/08/09 11:15:35;;;;;;;1.00;0.90;;;21.70;1.00;;;;;;5054582;28;20214;-77
2023/08/09 11:18:02;;;;;;;2.20;1.08;;;22.20;1.00;;;;;;5054615;28;20668;-78
2023/08/09 11:20:31;;;;;;;1.85;1.05;;;22.30;1.00;;;;;;5063129;28;20190;-78
2023/08/09 11:23:00;;;;;;;3.78;1.10;;;22.30;1.00;;;;;;5055149;28;20675;-78
2023/08/09 11:25:31;;;;;;;1.95;1.00;;;22.20;1.00;;;;;;5054784;28;20206;-79
2023/08/09 11:28:00;;;;;;;1.75;0.82;;;22.50;1.00;;;;;;5054804;28;20226;-78
2023/08/09 11:30:30;;;;;;;1.20;0.70;;;22.90;1.00;;;;;;5055189;28;20209;-78
2023/08/09 11:32:58;;;;;;;0.75;0.68;;;22.70;1.00;;;;;;5055396;28;20222;-78
2023/08/09 11:35:34;;;;;;;1.48;1.00;;;22.60;1.00;;;;;;5055686;28;20213;-77
2023/08/09 11:38:05;;;;;;;1.73;1.00;;;23.10;1.00;;;;;;5055191;28;20231;-77
2023/08/09 11:40:40;;;;;;;4.82;0.93;;;23.20;1.00;;;;;;5055442;28;20205;-77
2023/08/09 11:43:11;;;;;;;4.40;1.05;;;23.20;1.00;;;;;;5055018;28;20202;-78
2023/08/09 11:45:52;;;;;;;1.17;0.93;;;23.10;1.00;;;;;;5055359;28;20199;-78
2023/08/09 11:48:30;;;;;;;3.40;1.10;;;22.80;1.00;;;;;;5056196;28;20226;-78
2023/08/09 11:51:05;;;;;;;4.22;1.25;;;22.30;1.00;;;;;;5068635;28;20217;-78
2023/08/09 11:53:33;;;;;;;2.83;1.10;;;22.20;1.00;;;;;;5054962;28;20221;-78
2023/08/09 11:56:00;;;;;;;1.38;0.93;;;22.20;1.00;;;;;;5054650;28;20312;-79
2023/08/09 11:58:27;;;;;;;0.77;0.75;;;22.60;1.00;;;;;;5054787;28;20770;-78
2023/08/09 12:00:54;;;;;;;2.70;0.90;;;23.20;1.00;;;;;;5054906;28;20570;-78
2023/08/09 12:03:22;;;;;;;1.02;0.80;;;23.00;1.00;;;;;;5054805;28;20203;-79
2023/08/09 12:05:52;;;;;;;2.70;0.80;;;22.10;1.00;;;;;;5055169;28;20206;-78
2023/08/09 12:08:32;;;;;;;1.63;1.20;;;22.00;1.00;;;;;;5054041;28;20222;-77
2023/08/09 12:10:58;;;;;;;1.02;0.77;;;22.00;1.00;;;;;;5054327;28;20206;-78
2023/08/09 12:13:25;;;;;;;0.80;0.80;;;22.70;1.00;;;;;;5054519;28;20651;-78
2023/08/09 12:15:51;;;;;;;2.47;0.98;;;22.80;1.00;;;;;;5054995;28;20277;-77
2023/08/09 12:18:18;;;;;;;2.38;1.23;;;23.20;1.00;;;;;;5054507;28;20229;-78
2023/08/09 12:20:46;;;;;;;1.95;1.08;;;23.50;1.00;;;;;;5054976;28;20587;-77
2023/08/09 12:23:13;;;;;;;1.20;1.10;;;23.50;1.00;;;;;;5054626;28;20570;-78
2023/08/09 12:25:43;;;;;;;1.13;0.77;;;22.50;1.00;;;;;;5054945;28;20203;-79
2023/08/09 12:28:10;;;;;;;2.53;1.00;;;22.60;1.00;;;;;;5054592;28;20226;-79
2023/08/09 12:30:37;;;;;;;1.13;0.93;;;22.90;1.00;;;;;;5062876;28;20199;-80
2023/08/09 12:33:08;;;;;;;0.93;0.85;;;23.30;1.00;;;;;;5054264;28;20227;-80
2023/08/09 12:35:35;;;;;;;1.63;1.20;;;22.60;1.00;;;;;;5054310;28;20229;-77
2023/08/09 12:38:01;;;;;;;2.33;1.10;;;22.50;1.00;;;;;;5054808;28;20231;-79
2023/08/09 12:40:29;;;;;;;6.18;1.13;;;22.00;1.00;;;;;;5053904;28;20195;-80
2023/08/09 12:42:57;;;;;;;2.90;0.90;;;22.00;1.00;;;;;;5053541;28;20673;-79
2023/08/09 12:45:24;;;;;;;2.40;1.13;;;21.70;1.00;;;;;;5055002;28;20257;-79
2023/08/09 12:47:51;;;;;;;1.20;0.80;;;21.70;1.00;;;;;;5053654;28;20220;-79
2023/08/09 12:50:19;;;;;;;2.00;1.23;;;21.90;1.00;;;;;;5053087;28;20211;-80
2023/08/09 12:52:46;;;;;;;1.70;0.73;;;22.60;1.00;;;;;;5041483;28;20217;-80